createdAt,value
2018-05-07T00:01:17.587Z,2.42
2018-05-07T00:03:44.148Z,2.50
2018-05-07T00:06:10.738Z,2.33
2018-05-07T00:08:37.274Z,2.10
2018-05-07T00:11:03.856Z,2.28
2018-05-07T00:13:30.755Z,2.20
2018-05-07T00:15:57.344Z,2.10
2018-05-07T00:18:24.282Z,2.30
2018-05-07T00:20:50.861Z,2.10
2018-05-07T00:23:17.780Z,1.92
2018-05-07T00:25:44.329Z,2.00
2018-05-07T00:28:10.900Z,2.00
2018-05-07T00:30:37.820Z,2.50
2018-05-07T00:33:04.388Z,2.13
2018-05-07T00:35:30.984Z,2.10
2018-05-07T00:37:57.536Z,2.03
2018-05-07T00:40:24.102Z,2.00
2018-05-07T00:42:50.615Z,2.20
2018-05-07T00:45:17.176Z,1.98
2018-05-07T00:47:43.748Z,1.85
2018-05-07T00:50:10.268Z,2.20
2018-05-07T00:52:36.840Z,2.10
2018-05-07T00:55:15.476Z,1.83
2018-05-07T00:57:42.037Z,1.90
2018-05-07T01:00:08.613Z,2.30
2018-05-07T01:02:35.515Z,2.45
2018-05-07T01:05:02.065Z,2.30
2018-05-07T01:07:28.613Z,2.35
2018-05-07T01:09:55.204Z,2.10
2018-05-07T01:12:21.769Z,2.30
2018-05-07T01:14:48.297Z,1.80
2018-05-07T01:17:14.874Z,2.50
2018-05-07T01:19:41.408Z,2.20
2018-05-07T01:22:08.328Z,2.20
2018-05-07T01:24:34.884Z,2.17
2018-05-07T01:27:01.408Z,2.40
2018-05-07T01:29:27.980Z,2.20
2018-05-07T01:31:54.541Z,1.98
2018-05-07T01:34:21.484Z,2.33
2018-05-07T01:36:48.072Z,2.30
2018-05-07T01:39:14.609Z,2.70
2018-05-07T01:41:41.185Z,2.20
2018-05-07T01:44:07.724Z,2.40
2018-05-07T01:46:34.345Z,2.40
2018-05-07T01:49:01.277Z,2.50
2018-05-07T01:51:27.828Z,2.45
2018-05-07T01:53:54.418Z,2.30
2018-05-07T01:56:20.948Z,2.67
2018-05-07T01:58:47.891Z,2.30
2018-05-07T02:01:14.821Z,2.50
2018-05-07T02:03:41.349Z,2.50
2018-05-07T02:06:07.925Z,2.50
2018-05-07T02:08:34.460Z,2.62
2018-05-07T02:11:00.975Z,2.70
2018-05-07T02:13:27.543Z,2.37
2018-05-07T02:15:54.120Z,2.83
2018-05-07T02:18:21.016Z,2.22
2018-05-07T02:20:47.569Z,2.80
2018-05-07T02:23:14.095Z,2.58
2018-05-07T02:28:35.220Z,2.60
2018-05-07T02:31:01.774Z,2.80
2018-05-07T02:33:28.760Z,2.30
2018-05-07T02:35:55.346Z,2.37
2018-05-07T02:38:21.941Z,2.70
2018-05-07T02:40:48.840Z,2.53
2018-05-07T02:43:15.368Z,2.85
2018-05-07T02:45:41.940Z,2.70
2018-05-07T02:48:08.504Z,2.97
2018-05-07T02:50:35.053Z,2.72
2018-05-07T02:53:01.629Z,2.93
2018-05-07T02:55:28.556Z,2.60
2018-05-07T02:57:55.156Z,2.65
2018-05-07T03:00:21.716Z,2.70
2018-05-07T03:02:48.248Z,2.75
2018-05-07T03:05:14.818Z,2.70
2018-05-07T03:07:41.397Z,2.87
2018-05-07T03:10:07.927Z,2.70
2018-05-07T03:12:34.472Z,2.35
2018-05-07T03:15:00.996Z,2.42
2018-05-07T03:17:27.606Z,2.62
2018-05-07T03:19:54.586Z,2.75
2018-05-07T03:22:28.181Z,2.80
2018-05-07T03:24:54.781Z,3.30
2018-05-07T03:27:21.336Z,2.70
2018-05-07T03:29:47.901Z,2.20
2018-05-07T03:32:14.415Z,2.50
2018-05-07T03:34:40.971Z,2.60
2018-05-07T03:37:07.577Z,2.70
2018-05-07T03:39:34.480Z,2.72
2018-05-07T03:42:01.036Z,2.30
2018-05-07T03:44:27.568Z,2.75
2018-05-07T03:46:54.178Z,2.60
2018-05-07T03:49:20.705Z,3.15
2018-05-07T03:51:47.590Z,2.90
2018-05-07T03:54:14.144Z,2.90
2018-05-07T03:56:40.667Z,2.92
2018-05-07T03:59:07.584Z,2.60
2018-05-07T04:01:34.155Z,2.80
2018-05-07T04:04:00.671Z,2.55
2018-05-07T04:06:27.289Z,2.90
2018-05-07T04:08:53.836Z,2.60
2018-05-07T04:11:20.408Z,3.20
2018-05-07T04:13:46.967Z,2.40
2018-05-07T04:19:26.403Z,3.12
2018-05-07T04:22:05.017Z,2.90
2018-05-07T04:24:31.943Z,2.67
2018-05-07T04:26:58.505Z,3.20
2018-05-07T04:29:25.505Z,2.90
2018-05-07T04:31:52.060Z,2.92
2018-05-07T04:34:18.603Z,3.20
2018-05-07T04:36:45.284Z,2.55
2018-05-07T04:39:11.909Z,3.00
2018-05-07T04:41:38.567Z,2.45
2018-05-07T04:44:05.084Z,2.85
2018-05-07T04:46:31.644Z,2.27
2018-05-07T04:48:58.232Z,2.80
2018-05-07T04:51:24.804Z,2.65
2018-05-07T04:53:51.392Z,2.40
2018-05-07T04:56:17.947Z,3.17
2018-05-07T04:58:44.576Z,2.75
2018-05-07T05:01:11.184Z,2.90
2018-05-07T05:03:37.708Z,3.10
2018-05-07T05:06:04.276Z,2.50
2018-05-07T05:08:30.787Z,2.58
2018-05-07T05:10:57.388Z,2.67
2018-05-07T05:13:24.333Z,3.00
2018-05-07T05:15:50.872Z,3.00
2018-05-07T05:18:17.549Z,3.45
2018-05-07T05:20:44.459Z,3.00
2018-05-07T05:23:11.019Z,3.00
2018-05-07T05:25:37.632Z,3.78
2018-05-07T05:28:04.167Z,2.95
2018-05-07T05:30:30.716Z,2.83
2018-05-07T05:32:57.281Z,3.10
2018-05-07T05:35:23.852Z,2.80
2018-05-07T05:37:50.416Z,3.00
2018-05-07T05:40:17.028Z,2.42
2018-05-07T05:42:43.688Z,2.80
2018-05-07T05:45:10.299Z,2.62
2018-05-07T05:47:36.885Z,2.90
2018-05-07T05:50:03.571Z,3.12
2018-05-07T05:52:30.091Z,2.60
2018-05-07T05:54:56.668Z,2.80
2018-05-07T05:57:23.608Z,2.70
2018-05-07T05:59:50.197Z,2.75
2018-05-07T06:02:16.812Z,2.90
2018-05-07T06:04:43.731Z,2.70
2018-05-07T06:07:10.322Z,2.87
2018-05-07T06:09:37.241Z,2.50
2018-05-07T06:12:03.815Z,2.80
2018-05-07T06:14:37.438Z,2.92
2018-05-07T06:17:04.269Z,2.90
2018-05-07T06:19:30.825Z,2.80
2018-05-07T06:21:57.367Z,2.50
2018-05-07T06:24:23.957Z,2.90
2018-05-07T06:26:50.502Z,2.78
2018-05-07T06:29:17.096Z,2.65
2018-05-07T06:31:43.648Z,2.70
2018-05-07T06:34:10.164Z,3.30
2018-05-07T06:36:36.752Z,2.43
2018-05-07T06:39:03.408Z,2.75
2018-05-07T06:41:29.976Z,3.10
2018-05-07T06:43:56.547Z,2.92
2018-05-07T06:46:23.133Z,2.40
2018-05-07T06:48:50.104Z,2.70
2018-05-07T06:51:17.064Z,2.60
2018-05-07T06:53:43.604Z,3.00
2018-05-07T06:56:10.196Z,2.60
2018-05-07T06:58:37.167Z,2.47
2018-05-07T07:01:03.709Z,2.80
2018-05-07T07:03:30.652Z,2.65
2018-05-07T07:05:57.581Z,2.70
2018-05-07T07:08:24.275Z,2.55
2018-05-07T07:10:51.124Z,2.92
2018-05-07T07:13:18.037Z,2.80
2018-05-07T07:15:44.621Z,2.78
2018-05-07T07:18:17.937Z,2.45
2018-05-07T07:20:44.503Z,2.80
2018-05-07T07:23:11.092Z,2.83
2018-05-07T07:25:37.648Z,2.80
2018-05-07T07:28:04.244Z,2.60
2018-05-07T07:30:30.760Z,2.40
2018-05-07T07:32:57.695Z,2.90
2018-05-07T07:35:24.285Z,2.20
2018-05-07T07:37:50.820Z,2.72
2018-05-07T07:40:17.768Z,2.70
2018-05-07T07:42:44.688Z,2.60
2018-05-07T07:45:11.265Z,2.73
2018-05-07T07:47:38.232Z,2.50
2018-05-07T07:50:05.132Z,2.70
2018-05-07T07:52:31.749Z,3.00
2018-05-07T07:54:58.667Z,2.65
2018-05-07T07:57:25.240Z,2.40
2018-05-07T07:59:52.172Z,2.70
2018-05-07T08:02:18.764Z,2.80
2018-05-07T08:04:45.333Z,2.70
2018-05-07T08:07:11.877Z,2.70
2018-05-07T08:09:38.453Z,2.53
2018-05-07T08:12:05.114Z,2.90
2018-05-07T08:14:31.584Z,2.30
2018-05-07T08:16:58.152Z,2.70
2018-05-07T08:19:24.687Z,2.78
2018-05-07T08:21:51.249Z,2.47
2018-05-07T08:24:17.812Z,2.30
2018-05-07T08:26:44.332Z,2.60
2018-05-07T08:29:10.905Z,2.60
2018-05-07T08:31:37.443Z,2.67
2018-05-07T08:34:04.003Z,2.60
2018-05-07T08:36:30.660Z,2.70
2018-05-07T08:38:57.161Z,2.60
2018-05-07T08:41:24.095Z,2.80
2018-05-07T08:43:50.634Z,2.45
2018-05-07T08:46:17.313Z,2.92
2018-05-07T08:48:44.252Z,2.70
2018-05-07T08:51:10.841Z,2.60
2018-05-07T08:53:37.740Z,2.40
2018-05-07T08:56:04.285Z,2.70
2018-05-07T08:58:30.899Z,2.70
2018-05-07T09:00:57.463Z,2.45
2018-05-07T09:03:23.995Z,2.55
2018-05-07T09:05:50.551Z,2.62
2018-05-07T09:08:17.091Z,3.05
2018-05-07T09:10:43.717Z,2.30
2018-05-07T09:13:10.288Z,2.40
2018-05-07T09:15:36.824Z,2.45
2018-05-07T09:18:03.391Z,2.60
2018-05-07T09:20:29.919Z,2.35
2018-05-07T09:22:56.486Z,2.90
2018-05-07T09:25:23.048Z,2.50
2018-05-07T09:27:49.573Z,2.50
2018-05-07T09:30:16.160Z,2.10
2018-05-07T09:32:42.681Z,2.60
2018-05-07T09:35:09.240Z,2.80
2018-05-07T09:37:35.800Z,2.50
2018-05-07T09:40:02.371Z,2.58
2018-05-07T09:42:29.313Z,2.53
2018-05-07T09:44:56.207Z,2.42
2018-05-07T09:47:22.783Z,2.35
2018-05-07T09:49:49.336Z,2.40
2018-05-07T09:52:15.936Z,2.22
2018-05-07T09:54:42.554Z,2.67
2018-05-07T09:57:09.171Z,2.62
2018-05-07T09:59:35.695Z,2.50
2018-05-07T10:02:02.288Z,2.47
2018-05-07T10:04:28.853Z,2.00
2018-05-07T10:06:55.387Z,2.65
2018-05-07T10:09:21.940Z,2.50
2018-05-07T10:11:48.515Z,2.70
2018-05-07T10:14:15.069Z,2.85
2018-05-07T10:16:42.255Z,2.20
2018-05-07T10:19:08.778Z,2.40
2018-05-07T10:21:35.396Z,1.98
2018-05-07T10:24:02.336Z,2.10
2018-05-07T10:26:28.869Z,2.50
2018-05-07T10:28:55.432Z,2.20
2018-05-07T10:31:21.957Z,2.30
2018-05-07T10:33:48.516Z,2.40
2018-05-07T10:36:15.095Z,1.80
2018-05-07T10:38:41.997Z,2.62
2018-05-07T10:41:08.559Z,2.67
2018-05-07T10:43:35.136Z,2.30
2018-05-07T10:46:01.732Z,2.40
2018-05-07T10:48:28.347Z,1.90
2018-05-07T10:50:54.952Z,2.30
2018-05-07T10:53:21.504Z,2.20
2018-05-07T10:55:48.040Z,2.40
2018-05-07T10:58:14.612Z,2.30
2018-05-07T11:00:41.169Z,2.50
2018-05-07T11:03:07.712Z,2.20
2018-05-07T11:05:34.277Z,1.93
2018-05-07T11:08:01.173Z,2.60
2018-05-07T11:10:27.741Z,2.50
2018-05-07T11:12:54.301Z,2.10
2018-05-07T11:15:20.816Z,2.53
2018-05-07T11:17:47.392Z,2.20
2018-05-07T11:20:13.928Z,2.30
2018-05-07T11:22:40.488Z,2.10
2018-05-07T11:25:07.072Z,2.40
2018-05-07T11:27:33.962Z,2.47
2018-05-07T11:30:00.518Z,2.10
2018-05-07T11:32:27.115Z,2.05
2018-05-07T11:34:54.044Z,2.10
2018-05-07T11:37:20.620Z,1.97
2018-05-07T11:39:47.152Z,2.20
2018-05-07T11:42:14.013Z,2.10
2018-05-07T11:44:40.904Z,1.85
2018-05-07T11:47:07.509Z,2.20
2018-05-07T11:49:34.068Z,2.20
2018-05-07T11:52:01.001Z,2.35
2018-05-07T11:54:27.559Z,1.90
2018-05-07T11:56:54.134Z,2.20
2018-05-07T11:59:21.064Z,2.50
2018-05-07T12:01:47.632Z,2.60
2018-05-07T12:04:14.543Z,2.20
2018-05-07T12:06:41.112Z,1.85
2018-05-07T12:09:07.705Z,2.05
2018-05-07T12:11:34.239Z,2.00
2018-05-07T12:14:00.797Z,2.50
2018-05-07T12:16:27.349Z,2.40
2018-05-07T12:18:53.900Z,2.00
2018-05-07T12:21:20.486Z,2.20
2018-05-07T12:23:47.047Z,2.10
2018-05-07T12:26:13.614Z,2.40
2018-05-07T12:28:40.517Z,2.20
2018-05-07T12:31:07.090Z,2.78
2018-05-07T12:33:33.634Z,2.00
2018-05-07T12:36:00.208Z,2.10
2018-05-07T12:38:27.135Z,2.08
2018-05-07T12:40:53.651Z,2.35
2018-05-07T12:43:20.199Z,2.40
2018-05-07T12:45:46.771Z,2.40
2018-05-07T12:48:13.364Z,2.50
2018-05-07T12:50:39.916Z,2.50
2018-05-07T12:53:06.856Z,2.50
2018-05-07T12:55:33.433Z,2.40
2018-05-07T12:58:00.346Z,2.60
2018-05-07T13:00:26.934Z,2.33
2018-05-07T13:02:53.499Z,2.60
2018-05-07T13:05:20.030Z,2.53
2018-05-07T13:07:46.981Z,1.97
2018-05-07T13:10:13.882Z,2.13
2018-05-07T13:12:40.473Z,2.37
2018-05-07T13:15:07.096Z,2.30
2018-05-07T13:17:33.700Z,2.53
2018-05-07T13:20:00.267Z,2.03
2018-05-07T13:22:26.899Z,2.13
2018-05-07T13:24:53.513Z,2.27
2018-05-07T13:27:20.232Z,1.95
2018-05-07T13:29:46.799Z,2.30
2018-05-07T13:32:13.369Z,2.05
2018-05-07T13:34:40.424Z,2.10
2018-05-07T13:37:07.365Z,2.30
2018-05-07T13:39:33.912Z,2.10
2018-05-07T13:42:00.440Z,1.70
2018-05-07T13:44:27.007Z,1.93
2018-05-07T13:46:53.565Z,2.10
2018-05-07T13:49:20.092Z,2.30
2018-05-07T13:51:46.701Z,2.40
2018-05-07T13:54:13.601Z,2.27
2018-05-07T13:56:40.161Z,2.10
2018-05-07T13:59:06.779Z,2.40
2018-05-07T14:01:33.316Z,2.17
2018-05-07T14:03:59.880Z,2.58
2018-05-07T14:06:26.422Z,2.40
2018-05-07T14:08:53.041Z,2.10
2018-05-07T14:11:19.616Z,2.28
2018-05-07T14:13:46.164Z,2.37
2018-05-07T14:16:12.739Z,2.20
2018-05-07T14:18:39.260Z,2.47
2018-05-07T14:21:05.825Z,2.50
2018-05-07T14:23:32.404Z,2.60
2018-05-07T14:25:59.309Z,2.03
2018-05-07T14:28:25.882Z,2.30
2018-05-07T14:30:52.409Z,2.80
2018-05-07T14:33:18.975Z,2.47
2018-05-07T14:35:45.564Z,2.27
2018-05-07T14:38:12.104Z,2.40
2018-05-07T14:40:38.684Z,2.37
2018-05-07T14:43:05.229Z,2.20
2018-05-07T14:45:31.899Z,2.30
2018-05-07T14:47:58.476Z,2.42
2018-05-07T14:50:25.394Z,2.30
2018-05-07T14:52:52.426Z,2.15
2018-05-07T14:55:18.961Z,2.20
2018-05-07T14:57:45.530Z,2.20
2018-05-07T15:00:12.119Z,2.30
2018-05-07T15:02:38.659Z,2.22
2018-05-07T15:05:05.256Z,2.42
2018-05-07T15:07:31.788Z,2.30
2018-05-07T15:09:58.746Z,2.50
2018-05-07T15:12:25.681Z,2.55
2018-05-07T15:14:52.605Z,2.80
2018-05-07T15:17:19.180Z,2.10
2018-05-07T15:19:45.734Z,2.30
2018-05-07T15:22:12.664Z,2.87
2018-05-07T15:24:45.352Z,2.30
2018-05-07T15:27:11.935Z,2.70
2018-05-07T15:29:38.871Z,2.50
2018-05-07T15:32:05.431Z,2.45
2018-05-07T15:34:32.034Z,2.20
2018-05-07T15:36:58.602Z,2.20
2018-05-07T15:39:25.133Z,2.50
2018-05-07T15:41:51.684Z,2.80
2018-05-07T15:44:18.230Z,2.67
2018-05-07T15:46:44.816Z,2.70
2018-05-07T15:49:11.421Z,2.45
2018-05-07T15:51:38.033Z,2.70
2018-05-07T15:54:05.106Z,2.90
2018-05-07T15:56:31.721Z,2.40
2018-05-07T15:58:58.737Z,2.50
2018-05-07T16:01:25.304Z,2.40
2018-05-07T16:03:51.845Z,2.83
2018-05-07T16:06:18.418Z,2.50
2018-05-07T16:08:45.355Z,2.60
2018-05-07T16:11:11.892Z,2.40
2018-05-07T16:13:38.457Z,2.50
2018-05-07T16:16:05.012Z,2.60
2018-05-07T16:18:31.600Z,2.80
2018-05-07T16:23:52.361Z,2.93
2018-05-07T16:26:18.963Z,3.40
2018-05-07T16:28:45.926Z,2.40
2018-05-07T16:31:12.884Z,2.85
2018-05-07T16:33:39.445Z,2.70
2018-05-07T16:36:06.060Z,3.00
2018-05-07T16:38:32.701Z,2.70
2018-05-07T16:40:59.673Z,2.67
2018-05-07T16:43:26.652Z,2.80
2018-05-07T16:45:53.552Z,2.95
2018-05-07T16:48:20.275Z,2.72
2018-05-07T16:50:46.740Z,2.30
2018-05-07T16:53:13.291Z,2.60
2018-05-07T16:55:39.855Z,2.60
2018-05-07T16:58:06.471Z,2.97
2018-05-07T17:00:33.044Z,2.60
2018-05-07T17:02:59.616Z,2.70
2018-05-07T17:05:26.591Z,2.80
2018-05-07T17:07:53.512Z,2.50
2018-05-07T17:10:20.087Z,2.45
2018-05-07T17:12:47.045Z,2.90
2018-05-07T17:15:13.944Z,2.20
2018-05-07T17:17:40.495Z,2.60
2018-05-07T17:20:07.038Z,2.90
2018-05-07T17:22:33.605Z,2.70
2018-05-07T17:25:00.176Z,2.78
2018-05-07T17:27:26.732Z,2.80
2018-05-07T17:29:53.325Z,2.65
2018-05-07T17:32:19.849Z,2.50
2018-05-07T17:34:46.452Z,2.30
2018-05-07T17:37:13.048Z,2.62
2018-05-07T17:39:39.595Z,2.80
2018-05-07T17:42:06.164Z,2.60
2018-05-07T17:44:44.980Z,3.00
2018-05-07T17:47:23.840Z,2.67
2018-05-07T17:49:50.372Z,2.70
2018-05-07T17:52:16.958Z,2.37
2018-05-07T17:54:43.493Z,2.90
2018-05-07T17:57:10.088Z,5.40
2018-05-07T17:59:37.141Z,4.80
2018-05-07T18:02:03.680Z,4.37
2018-05-07T18:04:30.253Z,2.90
2018-05-07T18:06:57.160Z,4.70
2018-05-07T18:09:23.783Z,3.17
2018-05-07T18:11:50.343Z,2.80
2018-05-07T18:14:16.864Z,2.60
2018-05-07T18:16:43.427Z,2.70
2018-05-07T18:19:09.960Z,2.50
2018-05-07T18:21:36.609Z,1.83
2018-05-07T18:24:03.268Z,2.30
2018-05-07T18:26:30.106Z,2.20
2018-05-07T18:28:56.713Z,2.70
2018-05-07T18:31:23.648Z,2.90
2018-05-07T18:33:50.216Z,2.50
2018-05-07T18:36:16.813Z,2.45
2018-05-07T18:38:43.386Z,2.50
2018-05-07T18:41:09.960Z,2.58
2018-05-07T18:43:36.495Z,2.50
2018-05-07T18:46:03.910Z,3.00
2018-05-07T18:48:30.447Z,2.70
2018-05-07T18:50:56.992Z,2.60
2018-05-07T18:53:24.224Z,3.10
2018-05-07T18:55:50.772Z,2.60
2018-05-07T18:58:17.361Z,2.50
2018-05-07T19:00:43.987Z,2.55
2018-05-07T19:03:11.321Z,2.20
2018-05-07T19:05:37.910Z,3.00
2018-05-07T19:08:04.502Z,2.37
2018-05-07T19:10:31.457Z,2.90
2018-05-07T19:12:58.429Z,2.80
2018-05-07T19:15:24.984Z,2.80
2018-05-07T19:17:51.548Z,2.30
2018-05-07T19:20:18.113Z,2.67
2018-05-07T19:22:45.181Z,3.37
2018-05-07T19:25:11.795Z,3.30
2018-05-07T19:27:38.348Z,3.40
2018-05-07T19:30:04.971Z,3.10
2018-05-07T19:32:32.324Z,3.50
2018-05-07T19:34:58.940Z,3.43
2018-05-07T19:37:25.533Z,3.10
2018-05-07T19:39:52.147Z,3.10
2018-05-07T19:42:19.300Z,2.70
2018-05-07T19:44:45.873Z,2.75
2018-05-07T19:47:12.824Z,2.30
2018-05-07T19:49:40.825Z,2.70
2018-05-07T19:52:07.765Z,2.60
2018-05-07T19:54:34.709Z,2.60
2018-05-07T19:57:01.912Z,2.67
2018-05-07T19:59:28.508Z,3.00
2018-05-07T20:01:55.253Z,2.50
2018-05-07T20:04:21.797Z,3.33
2018-05-07T20:06:48.440Z,4.15
2018-05-07T20:09:15.013Z,3.30
2018-05-07T20:11:48.564Z,3.30
2018-05-07T20:14:15.181Z,3.80
2018-05-07T20:16:42.111Z,2.95
2018-05-07T20:19:08.680Z,2.75
2018-05-07T20:21:35.252Z,2.72
2018-05-07T20:24:02.220Z,2.90
2018-05-07T20:26:28.796Z,3.22
2018-05-07T20:28:55.344Z,3.42
2018-05-07T20:31:21.924Z,3.22
2018-05-07T20:33:48.557Z,3.58
2018-05-07T20:36:15.125Z,3.30
2018-05-07T20:38:42.075Z,4.00
2018-05-07T20:41:08.697Z,3.60
2018-05-07T20:43:35.239Z,4.03
2018-05-07T20:46:01.878Z,3.58
2018-05-07T20:48:28.412Z,3.50
2018-05-07T20:50:54.987Z,3.37
2018-05-07T20:53:21.588Z,3.43
2018-05-07T20:55:48.500Z,3.10
2018-05-07T20:58:15.165Z,3.77
2018-05-07T21:00:41.740Z,2.80
2018-05-07T21:03:08.711Z,2.90
2018-05-07T21:05:35.289Z,3.40
2018-05-07T21:08:01.847Z,3.20
2018-05-07T21:10:28.420Z,3.00
2018-05-07T21:12:54.961Z,3.10
2018-05-07T21:15:21.560Z,3.35
2018-05-07T21:17:48.176Z,3.40
2018-05-07T21:20:15.128Z,4.20
2018-05-07T21:22:42.128Z,3.22
2018-05-07T21:25:08.761Z,3.12
2018-05-07T21:27:35.327Z,3.80
2018-05-07T21:30:01.904Z,3.28
2018-05-07T21:32:28.454Z,3.50
2018-05-07T21:34:55.048Z,3.60
2018-05-07T21:37:22.232Z,3.62
2018-05-07T21:40:03.934Z,3.87
2018-05-07T21:42:30.783Z,4.53
2018-05-07T21:44:57.393Z,4.53
2018-05-07T21:47:23.981Z,5.12
2018-05-07T21:49:50.528Z,4.50
2018-05-07T21:52:17.125Z,4.68
2018-05-07T21:54:43.694Z,4.37
2018-05-07T21:57:10.248Z,4.00
2018-05-07T21:59:37.200Z,4.50
2018-05-07T22:02:04.181Z,4.45
2018-05-07T22:04:30.759Z,4.10
2018-05-07T22:06:57.346Z,4.30
2018-05-07T22:09:23.936Z,4.05
2018-05-07T22:11:50.520Z,3.67
2018-05-07T22:14:17.156Z,3.45
2018-05-07T22:16:43.740Z,3.37
2018-05-07T22:19:10.312Z,4.20
2018-05-07T22:21:37.219Z,4.32
2018-05-07T22:24:03.831Z,3.78
2018-05-07T22:26:30.400Z,4.00
2018-05-07T22:28:56.992Z,4.00
2018-05-07T22:31:23.604Z,4.65
2018-05-07T22:33:50.136Z,4.70
2018-05-07T22:36:16.740Z,4.60
2018-05-07T22:38:43.663Z,4.97
2018-05-07T22:41:10.240Z,6.18
2018-05-07T22:43:37.200Z,5.60
2018-05-07T22:46:04.156Z,4.80
2018-05-07T22:48:31.096Z,4.37
2018-05-07T22:50:57.639Z,4.50
2018-05-07T22:53:24.212Z,3.75
2018-05-07T22:55:50.810Z,4.00
2018-05-07T22:58:17.363Z,5.07
2018-05-07T23:00:44.065Z,4.40
2018-05-07T23:03:10.624Z,4.43
2018-05-07T23:05:37.190Z,4.75
2018-05-07T23:08:03.787Z,4.60
2018-05-07T23:10:30.346Z,4.70
2018-05-07T23:12:57.308Z,4.40
2018-05-07T23:15:24.208Z,4.57
2018-05-07T23:17:50.773Z,4.60
2018-05-07T23:20:17.419Z,4.93
2018-05-07T23:22:43.979Z,4.78
2018-05-07T23:25:10.556Z,5.03
2018-05-07T23:27:37.467Z,5.35
2018-05-07T23:30:04.076Z,5.20
2018-05-07T23:32:30.707Z,4.90
2018-05-07T23:34:57.651Z,4.80
2018-05-07T23:37:31.789Z,3.47
2018-05-07T23:39:58.724Z,3.70
2018-05-07T23:42:25.728Z,3.20
2018-05-07T23:44:52.300Z,2.97
2018-05-07T23:47:18.894Z,2.75
2018-05-07T23:49:45.845Z,2.90
2018-05-07T23:52:12.759Z,2.60
2018-05-07T23:54:39.341Z,3.05
2018-05-07T23:57:06.294Z,2.97
2018-05-07T23:59:32.858Z,3.20
